createdAt,value
2023-02-03T00:02:13.111Z,99278.83
2023-02-03T00:04:41.225Z,99280.40
2023-02-03T00:07:10.933Z,99280.79
2023-02-03T00:09:39.236Z,99282.52
2023-02-03T00:12:08.222Z,99281.96
2023-02-03T00:14:38.018Z,99282.11
2023-02-03T00:17:06.497Z,99280.56
2023-02-03T00:19:34.463Z,99285.02
2023-02-03T00:22:02.342Z,99283.30
2023-02-03T00:24:30.453Z,99287.45
2023-02-03T00:26:58.551Z,99291.25
2023-02-03T00:29:26.878Z,99291.11
2023-02-03T00:31:54.959Z,99292.29
2023-02-03T00:34:22.983Z,99291.95
2023-02-03T00:36:51.389Z,99296.85
2023-02-03T00:39:19.412Z,99292.37
2023-02-03T00:41:47.982Z,99295.30
2023-02-03T00:44:15.978Z,99294.45
2023-02-03T00:46:43.864Z,99298.91
2023-02-03T00:49:11.987Z,99299.60
2023-02-03T00:51:40.308Z,99301.50
2023-02-03T00:54:08.848Z,99299.08
2023-02-03T00:56:41.169Z,99298.04
2023-02-03T00:59:09.259Z,99293.22
2023-02-03T01:01:37.514Z,99298.52
2023-02-03T01:04:05.745Z,99301.78
2023-02-03T01:06:35.340Z,99302.85
2023-02-03T01:09:03.651Z,99303.90
2023-02-03T01:11:31.639Z,99304.60
2023-02-03T01:14:01.777Z,99303.40
2023-02-03T01:16:31.008Z,99303.88
2023-02-03T01:18:59.489Z,99303.80
2023-02-03T01:21:30.135Z,99299.08
2023-02-03T01:23:58.439Z,99299.99
2023-02-03T01:26:27.734Z,99297.98
2023-02-03T01:28:59.733Z,99294.80
2023-02-03T01:31:35.389Z,99299.94
2023-02-03T01:34:03.857Z,99296.67
2023-02-03T01:36:33.620Z,99300.61
2023-02-03T01:39:04.453Z,99301.09
2023-02-03T01:41:34.403Z,99297.81
2023-02-03T01:44:03.071Z,99301.13
2023-02-03T01:46:35.440Z,99303.94
2023-02-03T01:49:15.420Z,99298.65
2023-02-03T01:51:43.618Z,99297.61
2023-02-03T01:54:14.236Z,99292.54
2023-02-03T01:56:45.639Z,99298.16
2023-02-03T01:59:14.437Z,99301.96
2023-02-03T02:01:42.372Z,99290.30
2023-02-03T02:04:10.541Z,99289.48
2023-02-03T02:06:39.417Z,99297.92
2023-02-03T02:09:10.684Z,99306.30
2023-02-03T02:11:39.296Z,99301.25
2023-02-03T02:14:09.726Z,99305.07
2023-02-03T02:17:02.576Z,99301.48
2023-02-03T02:20:05.987Z,99299.61
2023-02-03T02:22:53.228Z,99298.70
2023-02-03T02:25:44.365Z,99303.00
2023-02-03T02:28:18.773Z,99301.61
2023-02-03T02:31:45.236Z,99305.70
2023-02-03T02:34:29.055Z,99297.48
2023-02-03T02:37:07.916Z,99299.23
2023-02-03T02:39:40.230Z,99301.31
2023-02-03T02:42:12.894Z,99302.70
2023-02-03T02:44:50.498Z,99299.20
2023-02-03T02:47:19.725Z,99300.73
2023-02-03T02:50:02.038Z,99297.42
2023-02-03T02:52:31.752Z,99302.70
2023-02-03T02:55:05.849Z,99304.27
2023-02-03T02:57:34.407Z,99304.98
2023-02-03T03:00:03.785Z,99308.05
2023-02-03T03:02:35.082Z,99312.56
2023-02-03T03:05:05.357Z,99312.06
2023-02-03T03:07:46.307Z,99304.21
2023-02-03T03:10:16.210Z,99301.52
2023-02-03T03:12:49.479Z,99305.33
2023-02-03T03:15:22.263Z,99307.85
2023-02-03T03:17:58.984Z,99303.67
2023-02-03T03:20:30.989Z,99304.36
2023-02-03T03:23:01.398Z,99299.02
2023-02-03T03:25:44.115Z,99297.27
2023-02-03T03:28:24.118Z,99303.42
2023-02-03T03:30:52.592Z,99301.88
2023-02-03T03:33:21.073Z,99305.31
2023-02-03T03:36:09.679Z,99301.72
2023-02-03T03:38:42.752Z,99300.75
2023-02-03T03:41:19.018Z,99307.36
2023-02-03T03:43:47.337Z,99304.59
2023-02-03T03:46:19.657Z,99305.80
2023-02-03T03:48:55.985Z,99300.86
2023-02-03T03:51:29.862Z,99305.40
2023-02-03T03:54:00.854Z,99302.21
2023-02-03T03:56:32.544Z,99299.95
2023-02-03T03:59:01.219Z,99300.30
2023-02-03T04:01:29.415Z,99297.01
2023-02-03T04:03:59.873Z,99297.68
2023-02-03T04:06:27.813Z,99298.55
2023-02-03T04:08:56.805Z,99302.30
2023-02-03T04:11:43.318Z,99308.63
2023-02-03T04:14:13.145Z,99303.40
2023-02-03T04:16:41.117Z,99303.85
2023-02-03T04:19:09.000Z,99298.64
2023-02-03T04:21:41.259Z,99298.31
2023-02-03T04:24:09.757Z,99296.79
2023-02-03T04:26:37.863Z,99305.61
2023-02-03T04:29:05.937Z,99316.65
2023-02-03T04:31:34.695Z,99317.46
2023-02-03T04:34:03.081Z,99320.39
2023-02-03T04:36:31.248Z,99317.47
2023-02-03T04:38:59.166Z,99316.79
2023-02-03T04:41:27.263Z,99320.11
2023-02-03T04:43:55.231Z,99322.90
2023-02-03T04:46:23.268Z,99323.55
2023-02-03T04:48:51.184Z,99322.08
2023-02-03T04:51:19.608Z,99325.91
2023-02-03T04:53:47.486Z,99327.87
2023-02-03T04:56:16.583Z,99334.44
2023-02-03T04:58:45.074Z,99334.64
2023-02-03T05:01:13.461Z,99334.65
2023-02-03T05:03:41.864Z,99332.21
2023-02-03T05:06:09.908Z,99336.98
2023-02-03T05:08:38.373Z,99339.69
2023-02-03T05:11:06.807Z,99339.86
2023-02-03T05:13:40.166Z,99340.56
2023-02-03T05:16:36.616Z,99347.79
2023-02-03T05:19:05.511Z,99354.11
2023-02-03T05:21:33.524Z,99359.13
2023-02-03T05:24:03.344Z,99360.13
2023-02-03T05:26:31.860Z,99361.47
2023-02-03T05:28:59.818Z,99366.13
2023-02-03T05:31:27.802Z,99364.36
2023-02-03T05:33:56.408Z,99365.33
2023-02-03T05:36:24.495Z,99366.27
2023-02-03T05:38:52.693Z,99369.27
2023-02-03T05:41:39.126Z,99369.05
2023-02-03T05:44:07.229Z,99371.04
2023-02-03T05:46:35.370Z,99372.36
2023-02-03T05:49:03.231Z,99371.27
2023-02-03T05:51:31.501Z,99372.25
2023-02-03T05:54:00.004Z,99371.49
2023-02-03T05:56:28.508Z,99376.61
2023-02-03T05:58:57.225Z,99381.17
2023-02-03T06:01:25.494Z,99379.64
2023-02-03T06:03:54.704Z,99386.40
2023-02-03T06:06:23.124Z,99385.60
2023-02-03T06:08:56.253Z,99380.42
2023-02-03T06:11:26.958Z,99388.41
2023-02-03T06:13:56.591Z,99392.33
2023-02-03T06:16:25.660Z,99395.92
2023-02-03T06:18:53.863Z,99396.75
2023-02-03T06:21:22.388Z,99404.12
2023-02-03T06:23:50.532Z,99407.52
2023-02-03T06:26:18.627Z,99410.08
2023-02-03T06:28:50.082Z,99407.86
2023-02-03T06:31:18.087Z,99403.89
2023-02-03T06:33:46.191Z,99405.80
2023-02-03T06:36:14.150Z,99407.27
2023-02-03T06:38:41.979Z,99413.63
2023-02-03T06:41:10.071Z,99414.27
2023-02-03T06:43:37.960Z,99422.41
2023-02-03T06:46:06.056Z,99428.58
2023-02-03T06:48:34.843Z,99435.94
2023-02-03T06:51:03.363Z,99440.88
2023-02-03T06:53:31.539Z,99442.85
2023-02-03T06:56:02.216Z,99442.40
2023-02-03T06:58:30.447Z,99445.27
2023-02-03T07:00:59.073Z,99447.76
2023-02-03T07:03:27.728Z,99444.06
2023-02-03T07:05:55.787Z,99448.08
2023-02-03T07:08:23.899Z,99452.42
2023-02-03T07:10:55.338Z,99451.83
2023-02-03T07:13:23.391Z,99454.30
2023-02-03T08:07:53.701Z,99497.48
2023-02-03T08:10:22.196Z,99497.40
2023-02-03T08:12:53.420Z,99495.65
2023-02-03T08:15:21.561Z,99501.98
2023-02-03T08:17:50.056Z,99505.45
2023-02-03T08:20:18.488Z,99508.86
2023-02-03T08:22:46.608Z,99506.84
2023-02-03T08:25:14.609Z,99512.67
2023-02-03T08:27:47.140Z,99518.14
2023-02-03T08:30:15.490Z,99518.45
2023-02-03T08:32:43.475Z,99520.83
2023-02-03T08:35:11.916Z,99522.37
2023-02-03T08:37:39.902Z,99522.86
2023-02-03T08:40:08.647Z,99529.54
2023-02-03T08:42:36.661Z,99532.67
2023-02-03T08:45:05.448Z,99533.37
2023-02-03T08:47:36.843Z,99533.38
2023-02-03T08:50:05.960Z,99535.09
2023-02-03T08:52:33.945Z,99536.11
2023-02-03T08:55:02.280Z,99535.55
2023-02-03T08:57:41.578Z,99536.55
2023-02-03T09:00:10.360Z,99536.90
2023-02-03T09:02:38.242Z,99536.19
2023-02-03T09:05:07.433Z,99534.25
2023-02-03T09:07:37.943Z,99535.27
2023-02-03T09:10:07.053Z,99534.75
2023-02-03T09:12:36.047Z,99532.88
2023-02-03T09:15:08.555Z,99534.23
2023-02-03T09:17:36.544Z,99535.57
2023-02-03T09:20:05.202Z,99535.39
2023-02-03T09:22:33.544Z,99531.92
2023-02-03T09:25:01.892Z,99531.21
2023-02-03T09:27:29.916Z,99529.66
2023-02-03T09:29:58.733Z,99528.75
2023-02-03T09:32:26.869Z,99530.41
2023-02-03T09:34:55.080Z,99526.04
2023-02-03T09:37:23.006Z,99527.54
2023-02-03T09:39:51.192Z,99528.91
2023-02-03T09:42:32.065Z,99524.61
2023-02-03T09:45:32.739Z,99525.09
2023-02-03T09:48:09.864Z,99524.02
2023-02-03T09:50:40.821Z,99523.16
2023-02-03T09:53:18.021Z,99520.41
2023-02-03T09:55:46.283Z,99517.55
2023-02-03T09:58:21.162Z,99519.33
2023-02-03T10:01:01.988Z,99517.95
2023-02-03T10:03:48.216Z,99521.20
2023-02-03T10:06:25.170Z,99520.84
2023-02-03T10:09:20.247Z,99521.17
2023-02-03T10:12:14.289Z,99516.80
2023-02-03T10:15:14.287Z,99513.05
2023-02-03T10:18:06.226Z,99511.27
2023-02-03T10:20:48.827Z,99506.41
2023-02-03T10:23:18.845Z,99505.58
2023-02-03T10:25:57.425Z,99508.23
2023-02-03T10:28:30.927Z,99506.80
2023-02-03T10:31:01.033Z,99509.57
2023-02-03T10:33:30.944Z,99505.58
2023-02-03T10:36:20.465Z,99502.14
2023-02-03T10:38:48.688Z,99502.09
2023-02-03T10:41:17.214Z,99499.25
2023-02-03T10:43:51.781Z,99496.16
2023-02-03T10:46:28.015Z,99494.78
2023-02-03T10:48:56.302Z,99492.92
2023-02-03T10:51:32.060Z,99495.77
2023-02-03T10:54:00.276Z,99489.93
2023-02-03T10:56:38.561Z,99492.58
2023-02-03T10:59:07.564Z,99489.40
2023-02-03T11:01:44.643Z,99492.27
2023-02-03T11:04:45.193Z,99485.78
2023-02-03T11:07:26.978Z,99483.73
2023-02-03T11:09:54.925Z,99481.77
2023-02-03T11:12:23.163Z,99481.55
2023-02-03T11:14:52.425Z,99481.06
2023-02-03T11:17:27.132Z,99484.90
2023-02-03T11:19:58.981Z,99481.27
2023-02-03T11:22:31.631Z,99480.91
2023-02-03T11:24:59.631Z,99484.15
2023-02-03T11:27:29.896Z,99475.66
2023-02-03T11:30:30.203Z,99474.18
2023-02-03T11:33:02.653Z,99471.83
2023-02-03T11:35:32.010Z,99471.72
2023-02-03T11:38:01.156Z,99473.11
2023-02-03T11:40:30.145Z,99471.81
2023-02-03T11:42:58.332Z,99476.30
2023-02-03T14:32:56.687Z,99474.31
2023-02-03T14:35:31.421Z,99472.59
2023-02-03T14:38:01.977Z,99472.89
2023-02-03T14:40:40.609Z,99475.79
2023-02-03T14:43:20.715Z,99472.48
2023-02-03T14:46:11.316Z,99476.25
2023-02-03T14:48:52.042Z,99468.43
2023-02-03T14:51:51.634Z,99468.34
2023-02-03T14:54:50.896Z,99470.04
2023-02-03T14:57:49.171Z,99469.77
2023-02-03T15:00:20.842Z,99469.60
2023-02-03T15:03:11.960Z,99469.92
2023-02-03T15:05:47.624Z,99469.48
2023-02-03T15:08:44.864Z,99467.21
2023-02-03T15:11:21.889Z,99468.17
2023-02-03T15:13:50.040Z,99467.43
2023-02-03T15:16:19.665Z,99473.88
2023-02-03T15:18:54.042Z,99476.01
2023-02-03T15:21:22.115Z,99475.10
2023-02-03T15:23:51.109Z,99479.34
2023-02-03T15:26:23.397Z,99473.92
2023-02-03T15:29:02.663Z,99474.50
2023-02-03T15:31:45.007Z,99477.57
2023-02-03T15:34:39.877Z,99485.02
2023-02-03T15:37:12.620Z,99485.05
2023-02-03T15:39:43.319Z,99488.46
2023-02-03T15:42:46.471Z,99486.67
2023-02-03T15:45:37.532Z,99486.48
2023-02-03T15:48:23.219Z,99489.56
2023-02-03T15:50:57.292Z,99486.95
2023-02-03T15:53:41.100Z,99488.10
2023-02-03T15:56:57.012Z,99490.16
2023-02-03T15:59:35.535Z,99491.39
2023-02-03T16:02:27.272Z,99491.21
2023-02-03T16:04:55.942Z,99493.08
2023-02-03T16:07:28.354Z,99489.52
2023-02-03T16:09:57.152Z,99488.64
2023-02-03T16:12:31.989Z,99489.85
2023-02-03T16:15:02.423Z,99487.99
2023-02-03T16:17:34.918Z,99489.73
2023-02-03T16:20:12.231Z,99490.14
2023-02-03T16:22:45.612Z,99489.85
2023-02-03T16:25:13.830Z,99486.51
2023-02-03T16:27:44.449Z,99490.96
2023-02-03T16:30:31.228Z,99492.90
2023-02-03T16:33:24.347Z,99493.45
2023-02-03T16:36:15.058Z,99490.54
2023-02-03T16:39:05.459Z,99486.89
2023-02-03T16:41:52.736Z,99483.98
2023-02-03T16:44:39.815Z,99481.60
2023-02-03T16:47:43.218Z,99485.76
2023-02-03T16:50:40.870Z,99482.88
2023-02-03T16:53:17.051Z,99481.34
2023-02-03T16:55:45.149Z,99480.55
2023-02-03T16:58:13.326Z,99483.67
2023-02-03T17:00:42.864Z,99482.95
2023-02-03T17:03:12.890Z,99485.49
2023-02-03T17:05:42.474Z,99484.82
2023-02-03T17:08:10.522Z,99486.75
2023-02-03T17:10:39.478Z,99485.59
2023-02-03T17:13:08.344Z,99484.14
2023-02-03T17:15:44.002Z,99480.94
2023-02-03T17:18:14.932Z,99478.61
2023-02-03T17:20:43.742Z,99474.94
2023-02-03T17:23:12.756Z,99472.02
2023-02-03T17:25:40.853Z,99472.97
2023-02-03T17:28:09.261Z,99471.92
2023-02-03T17:30:37.468Z,99478.38
2023-02-03T17:33:13.431Z,99478.48
2023-02-03T17:35:42.568Z,99479.42
2023-02-03T17:38:11.855Z,99477.79
2023-02-03T17:54:42.867Z,99482.89
2023-02-03T17:57:10.802Z,99484.17
2023-02-03T17:59:39.781Z,99481.03
2023-02-03T18:02:09.430Z,99478.58
2023-02-03T18:04:38.275Z,99476.74
2023-02-03T18:07:06.890Z,99474.02
2023-02-03T18:09:34.926Z,99473.45
2023-02-03T18:12:03.404Z,99478.42
2023-02-03T18:14:32.751Z,99476.85
2023-02-03T18:17:01.069Z,99476.60
2023-02-03T18:19:29.414Z,99473.84
2023-02-03T18:21:57.508Z,99471.05
2023-02-03T18:24:28.644Z,99472.84
2023-02-03T18:26:57.136Z,99469.50
2023-02-03T18:29:26.266Z,99463.74
2023-02-03T18:31:54.117Z,99460.99
2023-02-03T18:34:22.340Z,99461.27
2023-02-03T18:36:50.324Z,99462.89
2023-02-03T18:39:19.120Z,99461.20
2023-02-03T18:41:47.235Z,99461.96
2023-02-03T18:44:15.344Z,99461.46
2023-02-03T18:46:43.436Z,99460.39
2023-02-03T18:49:12.127Z,99456.09
2023-02-03T18:51:41.143Z,99455.89
2023-02-03T18:54:09.128Z,99454.56
2023-02-03T18:56:37.439Z,99454.67
2023-02-03T18:59:08.205Z,99454.11
2023-02-03T19:01:36.270Z,99457.55
2023-02-03T19:04:04.857Z,99457.48
2023-02-03T19:06:34.257Z,99459.89
2023-02-03T19:09:02.552Z,99459.64
2023-02-03T19:11:33.706Z,99456.85
2023-02-03T19:14:01.874Z,99455.00
2023-02-03T19:16:32.753Z,99450.72
2023-02-03T19:19:00.873Z,99454.73
2023-02-03T19:21:29.083Z,99455.24
2023-02-03T19:23:57.133Z,99454.16
2023-02-03T19:26:25.035Z,99449.25
2023-02-03T19:28:53.137Z,99450.04
2023-02-03T19:31:21.291Z,99448.14
2023-02-03T19:33:49.595Z,99449.71
2023-02-03T19:36:17.623Z,99449.45
2023-02-03T19:38:45.611Z,99450.58
2023-02-03T21:01:00.416Z,99438.52
2023-02-03T21:03:47.516Z,99439.09
2023-02-03T21:06:17.421Z,99439.73
2023-02-03T21:08:46.026Z,99436.34
2023-02-03T21:11:28.345Z,99441.26
2023-02-03T21:13:56.673Z,99439.73
2023-02-03T21:16:33.497Z,99443.95
2023-02-03T21:19:02.950Z,99437.98
2023-02-03T21:21:34.954Z,99438.42
2023-02-03T21:24:25.267Z,99438.99
2023-02-03T21:26:53.658Z,99438.24
2023-02-03T21:29:35.748Z,99435.55
2023-02-03T21:32:04.136Z,99433.91
2023-02-03T21:34:34.405Z,99431.67
2023-02-03T21:37:22.602Z,99433.62
2023-02-03T21:39:50.615Z,99434.34
2023-02-03T21:42:43.191Z,99430.63
2023-02-03T21:45:35.761Z,99435.69
2023-02-03T21:48:29.928Z,99436.39
2023-02-03T21:51:15.407Z,99441.92
2023-02-03T21:54:15.510Z,99442.53
2023-02-03T21:56:45.682Z,99441.92
2023-02-03T21:59:15.980Z,99441.60
2023-02-03T22:01:44.213Z,99442.06
2023-02-03T22:04:12.630Z,99439.75
2023-02-03T22:06:53.917Z,99434.88
2023-02-03T22:09:25.772Z,99433.59
2023-02-03T22:12:13.615Z,99432.92
2023-02-03T22:14:44.444Z,99432.23
2023-02-03T22:17:14.264Z,99431.52
2023-02-03T22:19:42.361Z,99431.90
2023-02-03T22:22:10.374Z,99436.08
2023-02-03T22:24:38.536Z,99434.42
2023-02-03T22:27:07.649Z,99429.15
2023-02-03T22:29:36.864Z,99426.63
2023-02-03T22:32:04.896Z,99429.36
2023-02-03T22:34:32.859Z,99429.84
2023-02-03T22:37:01.037Z,99429.28
2023-02-03T22:39:29.122Z,99426.98
2023-02-03T22:41:57.011Z,99425.20
2023-02-03T22:44:24.891Z,99423.10
2023-02-03T22:46:53.210Z,99421.60
2023-02-03T22:49:21.106Z,99418.42
2023-02-03T22:51:49.380Z,99415.79
2023-02-03T22:54:17.455Z,99416.56
2023-02-03T22:56:45.339Z,99414.58
2023-02-03T22:59:13.359Z,99416.02
2023-02-03T23:01:41.319Z,99413.98
2023-02-03T23:04:09.791Z,99411.96
2023-02-03T23:06:38.871Z,99414.88
2023-02-03T23:09:06.735Z,99415.56
2023-02-03T23:11:34.588Z,99413.81
2023-02-03T23:14:03.813Z,99416.86
2023-02-03T23:16:31.928Z,99420.42
2023-02-03T23:18:59.914Z,99423.33
2023-02-03T23:21:27.917Z,99417.50
2023-02-03T23:23:55.884Z,99418.34
2023-02-03T23:26:23.942Z,99416.85
2023-02-03T23:28:51.974Z,99413.92
2023-02-03T23:31:20.223Z,99416.67
2023-02-03T23:34:07.050Z,99415.80
2023-02-03T23:36:36.074Z,99416.10
2023-02-03T23:39:04.285Z,99417.11
2023-02-03T23:41:32.362Z,99416.46
2023-02-03T23:44:00.952Z,99418.23
2023-02-03T23:46:29.209Z,99421.16
2023-02-03T23:48:57.257Z,99421.96
2023-02-03T23:51:25.110Z,99422.07
2023-02-03T23:53:53.003Z,99422.84
2023-02-03T23:56:21.556Z,99426.70
2023-02-03T23:58:49.459Z,99423.91
